Time;durP1;ratioP1;P1;durP2;ratioP2;P2;SDS_P1;SDS_P2;PMS_P1;PMS_P2;Temp;Humidity;BMP_temperature;BMP_pressure;BME280_temperature;BME280_humidity;BME280_pressure;Samples;Min_cycle;Max_cycle;Signal;HPM_P1;HPM_P2
2022/11/05 00:09:28;;;;;;;2.20;1.38;;;;;;;2.13;59.65;100357.78;5025745;28;20053;-65
2022/11/05 00:17:22;;;;;;;3.15;1.40;;;;;;;2.21;59.33;100368.06;5032908;28;20621;-65
2022/11/05 00:19:48;;;;;;;2.03;1.30;;;;;;;2.16;59.30;100367.41;5049178;28;20048;-65
2022/11/05 00:25:15;;;;;;;1.30;1.20;;;;;;;2.18;59.33;100372.63;5032531;28;20043;-64
2022/11/05 00:27:52;;;;;;;3.25;1.35;;;;;;;2.26;58.96;100375.84;5045197;28;20079;-63
2022/11/05 00:30:21;;;;;;;1.83;1.35;;;;;;;2.15;59.20;100370.97;5033198;28;20046;-65
2022/11/05 00:32:48;;;;;;;2.15;1.38;;;;;;;2.10;59.40;100373.75;5044806;28;20022;-64
2022/11/05 00:35:14;;;;;;;2.70;1.60;;;;;;;2.10;59.31;100378.19;5043366;28;20379;-64
2022/11/05 00:37:40;;;;;;;4.00;1.40;;;;;;;2.04;59.72;100371.34;5037193;28;20051;-64
2022/11/05 00:40:06;;;;;;;2.85;1.90;;;;;;;2.05;59.94;100380.13;5051203;28;20475;-64
2022/11/05 00:45:16;;;;;;;1.92;1.58;;;;;;;2.09;59.43;100379.13;5052219;28;20370;-65
2022/11/05 00:50:26;;;;;;;2.88;1.73;;;;;;;2.10;59.64;100378.19;5046084;28;20422;-65
2022/11/05 00:52:59;;;;;;;1.55;1.35;;;;;;;2.18;59.13;100386.69;5031714;28;20432;-65
2022/11/05 00:55:39;;;;;;;1.88;1.25;;;;;;;2.22;59.25;100392.75;5048094;28;20462;-65
2022/11/05 00:58:10;;;;;;;2.70;1.40;;;;;;;2.16;58.98;100393.81;5060955;28;20033;-64
2022/11/05 01:00:38;;;;;;;1.83;1.40;;;;;;;2.13;58.87;100400.06;5052179;28;20410;-65
2022/11/05 01:03:10;;;;;;;2.50;1.05;;;;;;;2.14;58.90;100399.13;5042101;28;20037;-65
2022/11/05 01:05:44;;;;;;;1.33;1.13;;;;;;;1.98;58.83;100377.72;5050617;28;20067;-64
2022/11/05 01:08:11;;;;;;;1.73;1.00;;;;;;;1.84;58.84;100357.09;5045094;28;20149;-65
2022/11/05 01:10:46;;;;;;;0.98;0.77;;;;;;;2.12;58.80;100398.34;5033547;28;20030;-65
2022/11/05 01:13:12;;;;;;;1.38;1.08;;;;;;;2.11;58.71;100401.06;5032383;28;20033;-64
2022/11/05 01:15:39;;;;;;;1.92;0.93;;;;;;;2.10;58.30;100404.63;5050644;28;20085;-64
2022/11/05 01:18:04;;;;;;;1.50;0.98;;;;;;;2.06;58.75;100398.56;5044539;28;20045;-64
2022/11/05 01:20:30;;;;;;;1.98;1.40;;;;;;;2.05;58.82;100407.41;5050206;28;20436;-64
2022/11/05 01:22:56;;;;;;;2.05;1.23;;;;;;;2.02;58.91;100404.88;5040187;28;20106;-64
2022/11/05 01:25:21;;;;;;;3.15;1.30;;;;;;;2.09;58.67;100413.44;5032146;28;20036;-65
2022/11/05 01:27:47;;;;;;;1.98;1.20;;;;;;;2.05;58.55;100412.69;5041489;28;20037;-65
2022/11/05 01:30:13;;;;;;;2.30;1.50;;;;;;;1.86;58.52;100396.66;5049712;28;20033;-64
2022/11/05 01:32:38;;;;;;;2.00;1.40;;;;;;;1.76;59.22;100385.53;5032201;28;20033;-65
2022/11/05 01:35:06;;;;;;;2.80;1.60;;;;;;;1.95;58.92;100420.06;5032336;28;20301;-64
2022/11/05 01:37:33;;;;;;;1.95;1.58;;;;;;;1.94;58.96;100421.00;5035339;28;20025;-64
2022/11/05 01:39:58;;;;;;;2.03;1.52;;;;;;;1.91;59.03;100415.81;5036197;28;20033;-66
2022/11/05 01:42:26;;;;;;;1.98;1.40;;;;;;;1.96;58.67;100424.44;5050741;28;20040;-65
2022/11/05 01:44:54;;;;;;;1.92;1.30;;;;;;;1.99;58.85;100426.13;5036680;28;20052;-65
2022/11/05 01:47:29;;;;;;;3.83;1.80;;;;;;;2.00;58.53;100422.56;5041896;28;20041;-64
2022/11/05 01:49:58;;;;;;;1.85;1.45;;;;;;;1.98;58.52;100424.41;5050350;28;20038;-64
2022/11/05 01:52:25;;;;;;;3.15;1.15;;;;;;;1.93;58.55;100423.69;5041754;28;20144;-64
2022/11/05 01:54:51;;;;;;;2.22;1.58;;;;;;;1.90;58.38;100419.38;5035470;28;20034;-65
2022/11/05 01:57:17;;;;;;;2.05;1.52;;;;;;;1.95;59.24;100433.28;5040401;28;20025;-64
2022/11/05 01:59:47;;;;;;;2.22;1.60;;;;;;;1.98;59.09;100429.69;5045100;28;20376;-65
2022/11/05 02:02:13;;;;;;;3.00;1.88;;;;;;;1.98;58.90;100434.97;5036667;28;20111;-65
2022/11/05 02:04:50;;;;;;;5.05;1.85;;;;;;;2.04;59.05;100433.88;5036316;28;20038;-64
2022/11/05 02:07:16;;;;;;;2.63;1.60;;;;;;;1.81;59.18;100407.34;5060300;28;20017;-65
2022/11/05 02:10:08;;;;;;;2.95;1.80;;;;;;;2.06;59.53;100451.41;5053154;28;20049;-64
2022/11/05 02:12:37;;;;;;;2.72;1.67;;;;;;;1.93;59.07;100434.25;5055244;28;20040;-65
2022/11/05 02:15:03;;;;;;;2.05;1.75;;;;;;;1.86;59.45;100447.66;5042172;28;20112;-64
2022/11/05 02:17:50;;;;;;;2.10;1.58;;;;;;;1.88;59.84;100446.75;5035803;28;20040;-64
2022/11/05 02:20:18;;;;;;;2.65;1.80;;;;;;;1.91;59.70;100441.34;5036432;28;20180;-65
2022/11/05 02:23:25;;;;;;;3.70;2.13;;;;;;;2.01;59.34;100448.91;5043959;28;20033;-64
2022/11/05 02:26:06;;;;;;;2.50;1.63;;;;;;;2.05;59.64;100449.66;5025737;28;20044;-65
2022/11/05 02:29:03;;;;;;;3.45;1.70;;;;;;;2.06;59.80;100446.09;5037309;28;20036;-65
2022/11/05 02:31:39;;;;;;;2.38;1.30;;;;;;;2.06;59.23;100451.41;5054055;28;20094;-65
2022/11/05 02:34:27;;;;;;;2.75;1.92;;;;;;;2.07;59.24;100447.84;5034247;28;20503;-65
2022/11/05 02:37:16;;;;;;;2.47;1.50;;;;;;;2.01;59.31;100458.63;5035193;28;20033;-64
2022/11/05 02:40:04;;;;;;;2.25;1.33;;;;;;;1.96;59.27;100458.78;5033902;28;20041;-64
2022/11/05 02:43:07;;;;;;;2.97;1.65;;;;;;;1.99;59.45;100463.09;5035182;28;20037;-64
2022/11/05 02:45:53;;;;;;;2.40;1.50;;;;;;;1.93;59.59;100458.00;5049942;28;20071;-64
2022/11/05 02:48:49;;;;;;;3.10;1.77;;;;;;;1.93;59.54;100460.66;5054182;28;20037;-65
2022/11/05 02:51:39;;;;;;;2.42;1.80;;;;;;;2.07;58.80;100468.97;5054063;28;20029;-64
2022/11/05 02:54:26;;;;;;;3.25;1.73;;;;;;;2.01;58.71;100466.53;5054945;28;20056;-64
2022/11/05 02:56:55;;;;;;;3.47;2.17;;;;;;;1.56;59.83;100439.00;5054706;28;20037;-64
2022/11/05 02:59:21;;;;;;;2.80;1.83;;;;;;;1.50;60.26;100437.44;5053338;28;20029;-65
2022/11/05 03:01:47;;;;;;;2.42;1.85;;;;;;;1.70;60.72;100475.53;5042891;28;20348;-63
2022/11/05 03:04:16;;;;;;;3.13;2.03;;;;;;;1.72;60.43;100474.53;5050241;28;20037;-64
2022/11/05 03:07:21;;;;;;;2.75;2.13;;;;;;;1.84;60.57;100477.69;5054505;28;20483;-65
2022/11/05 03:09:53;;;;;;;3.17;1.83;;;;;;;1.84;60.35;100473.25;5048711;28;20036;-65
2022/11/05 03:12:50;;;;;;;3.05;2.05;;;;;;;1.96;60.41;100476.41;5054472;28;20044;-63
2022/11/05 03:15:48;;;;;;;1.92;1.63;;;;;;;2.00;60.35;100478.03;5046255;28;20424;-65
2022/11/05 03:18:19;;;;;;;3.10;1.52;;;;;;;1.90;60.28;100497.72;5032136;28;20084;-64
2022/11/05 03:21:08;;;;;;;3.05;1.67;;;;;;;1.85;60.14;100485.53;5065225;28;20048;-64
2022/11/05 03:23:57;;;;;;;2.20;1.40;;;;;;;1.86;60.00;100497.00;5052129;28;20365;-64
2022/11/05 03:26:29;;;;;;;2.30;1.40;;;;;;;1.83;59.88;100486.53;5044433;28;20025;-64
2022/11/05 03:29:23;;;;;;;2.03;1.60;;;;;;;1.95;59.82;100491.38;5038571;28;20038;-64
2022/11/05 03:31:51;;;;;;;2.20;1.60;;;;;;;1.91;59.77;100494.16;5047973;28;20239;-65
2022/11/05 03:34:21;;;;;;;2.55;1.60;;;;;;;1.88;59.92;100494.28;5035174;28;20051;-64
2022/11/05 03:36:52;;;;;;;3.45;1.60;;;;;;;1.84;59.65;100499.66;5033752;28;20095;-65
2022/11/05 03:39:36;;;;;;;2.05;1.58;;;;;;;1.85;59.77;100496.09;5034480;28;20056;-65
2022/11/05 03:42:05;;;;;;;1.88;1.50;;;;;;;1.76;60.08;100501.72;5040152;28;20094;-63
2022/11/05 03:44:37;;;;;;;1.85;1.58;;;;;;;1.72;60.32;100502.72;5060241;28;20057;-65
2022/11/05 03:47:06;;;;;;;2.55;1.70;;;;;;;1.71;60.61;100515.06;5035193;28;20076;-64
2022/11/05 03:49:37;;;;;;;2.78;1.60;;;;;;;1.73;60.51;100509.72;5042010;28;20123;-65
2022/11/05 03:52:09;;;;;;;2.63;1.60;;;;;;;1.78;60.51;100520.13;5032945;28;20053;-64
2022/11/05 03:54:35;;;;;;;3.83;1.85;;;;;;;1.78;60.58;100525.41;5036964;28;20031;-64
2022/11/05 03:57:36;;;;;;;2.50;1.98;;;;;;;1.89;60.69;100515.38;5047004;28;20034;-63
2022/11/05 04:00:06;;;;;;;3.17;1.83;;;;;;;1.83;60.29;100532.28;5024509;28;20127;-65
2022/11/05 04:02:32;;;;;;;2.88;2.00;;;;;;;1.73;60.71;100517.66;5042974;28;20049;-64
2022/11/05 04:04:57;;;;;;;2.47;1.95;;;;;;;1.76;60.25;100538.69;5039179;28;20051;-65
2022/11/05 04:18:20;;;;;;;2.58;1.77;;;;;;;1.69;61.03;100511.59;5052798;28;20029;-64
2022/11/05 04:26:13;;;;;;;2.63;2.03;;;;;;;1.82;61.28;100529.69;5052337;28;20041;-64
2022/11/05 04:31:22;;;;;;;3.95;1.90;;;;;;;1.83;61.53;100537.56;5051652;28;20028;-64
2022/11/05 04:33:47;;;;;;;3.35;2.05;;;;;;;1.85;61.83;100538.34;5066160;28;20340;-64
2022/11/05 04:36:13;;;;;;;3.20;2.08;;;;;;;1.88;62.17;100541.81;5042825;28;20095;-66
2022/11/05 04:38:38;;;;;;;3.03;2.03;;;;;;;1.89;61.88;100540.91;5032093;28;20359;-64
2022/11/05 04:41:15;;;;;;;3.65;2.45;;;;;;;1.96;61.80;100538.00;5036908;28;20029;-64
2022/11/05 04:43:41;;;;;;;2.33;2.10;;;;;;;1.92;61.84;100540.78;5032084;28;20045;-64
2022/11/05 04:46:06;;;;;;;3.88;2.28;;;;;;;1.89;61.66;100544.41;5044153;28;20045;-64
2022/11/05 04:48:32;;;;;;;3.60;2.38;;;;;;;1.88;62.05;100552.38;5044235;28;20034;-64
2022/11/05 04:50:58;;;;;;;3.70;2.20;;;;;;;1.88;62.31;100547.97;5042280;28;20044;-64
2022/11/05 04:53:23;;;;;;;3.53;2.08;;;;;;;1.76;61.79;100528.13;5052028;28;20132;-63
2022/11/05 04:55:48;;;;;;;4.03;2.40;;;;;;;1.89;61.81;100538.25;5066077;28;20112;-64
2022/11/05 04:58:14;;;;;;;3.63;1.92;;;;;;;1.89;61.64;100544.41;5048823;28;20423;-64
2022/11/05 05:00:39;;;;;;;2.88;2.53;;;;;;;1.82;61.20;100524.41;5050464;28;20102;-64
2022/11/05 05:03:05;;;;;;;3.03;2.13;;;;;;;1.90;61.57;100550.53;5041768;28;20510;-64
2022/11/05 05:05:30;;;;;;;3.33;1.95;;;;;;;1.87;61.27;100551.53;5041633;28;20098;-64
2022/11/05 05:08:03;;;;;;;3.00;2.00;;;;;;;1.99;61.61;100561.66;5049522;28;20068;-64
2022/11/05 05:10:29;;;;;;;3.13;1.98;;;;;;;1.68;61.30;100507.25;5038285;28;20059;-65
2022/11/05 05:12:54;;;;;;;3.88;1.80;;;;;;;2.02;61.56;100550.16;5042256;28;20061;-64
2022/11/05 05:15:20;;;;;;;3.03;2.20;;;;;;;1.91;60.96;100542.59;5038658;28;20067;-65
2022/11/05 05:17:52;;;;;;;2.88;2.20;;;;;;;2.11;60.94;100560.41;5062741;28;20382;-65
2022/11/05 05:23:03;;;;;;;2.47;1.63;;;;;;;2.04;60.61;100569.44;5037585;28;20112;-65
2022/11/05 05:25:29;;;;;;;3.17;2.10;;;;;;;2.14;60.40;100570.84;5057568;28;20063;-64
2022/11/05 05:27:57;;;;;;;3.22;2.03;;;;;;;2.04;60.86;100572.09;5058826;28;20111;-63
2022/11/05 05:30:22;;;;;;;4.68;2.20;;;;;;;1.86;61.65;100573.56;5052109;28;20029;-65
2022/11/05 05:32:48;;;;;;;3.50;2.28;;;;;;;1.92;61.47;100588.31;5072621;28;20943;-64
2022/11/05 05:35:14;;;;;;;6.10;2.60;;;;;;;1.85;61.77;100577.97;5058522;28;20040;-66
2022/11/05 05:37:40;;;;;;;3.90;2.25;;;;;;;1.89;61.44;100591.06;5058197;28;20036;-65
2022/11/05 05:40:06;;;;;;;5.13;2.20;;;;;;;1.91;61.74;100592.75;5055802;28;20037;-65
2022/11/05 05:42:32;;;;;;;4.75;2.42;;;;;;;1.62;61.12;100533.84;5054327;28;20025;-64
2022/11/05 05:44:58;;;;;;;2.33;1.75;;;;;;;1.98;61.02;100596.06;5038819;28;20043;-65
2022/11/05 05:47:23;;;;;;;3.67;2.30;;;;;;;1.98;61.24;100589.00;5047769;28;20061;-64
2022/11/05 05:49:48;;;;;;;2.63;1.98;;;;;;;2.08;60.56;100599.28;5039114;28;20257;-64
2022/11/05 05:52:14;;;;;;;3.40;2.33;;;;;;;1.95;60.69;100578.53;5055391;28;20112;-65
2022/11/05 05:54:39;;;;;;;3.13;2.55;;;;;;;2.12;60.25;100607.03;5073711;28;20033;-65
2022/11/05 05:57:05;;;;;;;4.38;2.58;;;;;;;2.18;60.28;100602.47;5058497;28;20029;-66
2022/11/05 05:59:30;;;;;;;5.20;2.53;;;;;;;2.25;60.59;100604.00;5057287;28;20083;-64
2022/11/05 06:01:56;;;;;;;4.30;2.38;;;;;;;2.28;60.60;100609.19;5042757;28;20037;-64
2022/11/05 06:04:21;;;;;;;3.70;2.30;;;;;;;2.33;59.85;100617.81;5054091;28;20037;-64
2022/11/05 06:06:47;;;;;;;3.85;2.17;;;;;;;2.33;60.22;100604.59;5039723;28;20060;-65
2022/11/05 06:09:13;;;;;;;3.88;2.00;;;;;;;2.36;60.14;100608.91;5055399;28;20036;-64
2022/11/05 06:11:38;;;;;;;4.13;2.10;;;;;;;2.39;59.93;100614.94;5054354;28;20043;-65
2022/11/05 06:14:04;;;;;;;2.80;2.03;;;;;;;2.37;60.20;100618.56;5048187;28;20065;-65
2022/11/05 06:16:34;;;;;;;2.85;1.98;;;;;;;2.30;60.17;100617.91;5039958;28;20034;-64
2022/11/05 06:19:01;;;;;;;3.67;2.10;;;;;;;2.24;59.89;100624.25;5047202;28;20033;-65
2022/11/05 06:21:27;;;;;;;5.25;1.48;;;;;;;1.99;59.52;100584.59;5049384;28;20033;-64
2022/11/05 06:23:52;;;;;;;3.22;1.98;;;;;;;2.31;59.11;100619.63;5052907;28;20039;-64
2022/11/05 06:26:18;;;;;;;4.95;2.58;;;;;;;2.24;60.00;100624.25;5042019;28;20044;-64
2022/11/05 06:28:44;;;;;;;4.18;2.47;;;;;;;2.22;59.46;100615.53;5050505;28;20057;-64
2022/11/05 06:31:11;;;;;;;3.05;1.88;;;;;;;2.35;59.92;100623.91;5056636;28;20070;-65
2022/11/05 06:33:38;;;;;;;3.92;2.00;;;;;;;2.43;59.51;100621.88;5036110;28;20108;-66
2022/11/05 06:36:04;;;;;;;5.65;2.05;;;;;;;2.49;58.67;100625.22;5051035;28;20029;-64
2022/11/05 06:38:32;;;;;;;2.65;1.70;;;;;;;2.44;59.11;100634.19;5040962;28;20021;-64
2022/11/05 06:40:58;;;;;;;2.83;1.90;;;;;;;2.42;59.12;100630.72;5045691;28;20057;-65
2022/11/05 06:43:24;;;;;;;4.30;2.17;;;;;;;2.29;58.90;100590.63;5034725;28;20088;-65
2022/11/05 06:45:49;;;;;;;3.63;1.83;;;;;;;2.47;58.88;100621.78;5035791;28;20474;-64
2022/11/05 06:48:15;;;;;;;7.10;1.85;;;;;;;2.53;58.79;100630.38;5050817;28;20034;-65
2022/11/05 06:50:43;;;;;;;4.65;1.80;;;;;;;2.58;58.59;100635.47;5052895;28;20119;-65
2022/11/05 06:53:09;;;;;;;4.60;2.03;;;;;;;2.58;58.53;100638.13;5058729;28;20478;-64
2022/11/05 06:55:34;;;;;;;3.90;1.88;;;;;;;2.55;59.21;100632.94;5052980;28;20029;-65
2022/11/05 06:58:09;;;;;;;3.95;1.98;;;;;;;2.60;58.69;100638.94;5034985;28;20112;-65
2022/11/05 07:00:35;;;;;;;5.20;2.00;;;;;;;2.63;58.43;100640.63;5036684;28;20044;-66
2022/11/05 07:03:05;;;;;;;6.22;2.17;;;;;;;2.66;58.56;100643.16;5036839;28;20025;-66
2022/11/05 07:05:32;;;;;;;3.20;1.70;;;;;;;2.66;58.65;100644.03;5050260;28;20448;-64
2022/11/05 07:08:00;;;;;;;2.35;1.70;;;;;;;2.76;58.14;100656.91;5038369;28;20037;-66
2022/11/05 07:10:29;;;;;;;4.47;2.28;;;;;;;2.66;57.69;100636.09;5059127;28;20037;-65
2022/11/05 07:12:56;;;;;;;2.78;1.92;;;;;;;2.81;58.01;100660.25;5065565;28;20359;-65
2022/11/05 07:15:21;;;;;;;3.00;1.63;;;;;;;2.77;57.68;100654.19;5057296;28;20076;-65
2022/11/05 07:17:47;;;;;;;4.55;1.88;;;;;;;2.79;57.57;100656.81;5043413;28;20057;-64
2022/11/05 07:20:13;;;;;;;2.78;1.77;;;;;;;2.77;57.62;100663.94;5045014;28;20036;-65
2022/11/05 07:22:39;;;;;;;5.20;1.52;;;;;;;2.77;57.77;100661.28;5053057;28;20025;-64
2022/11/05 07:25:05;;;;;;;3.35;1.90;;;;;;;2.83;57.90;100667.22;5047854;28;20037;-66
2022/11/05 07:27:30;;;;;;;2.80;1.40;;;;;;;2.90;57.23;100664.38;5055288;28;20033;-64
2022/11/05 07:29:56;;;;;;;4.03;1.90;;;;;;;2.94;56.69;100672.16;5052290;28;20317;-65
2022/11/05 07:32:21;;;;;;;2.00;1.50;;;;;;;2.98;56.32;100670.25;5033986;28;20033;-65
2022/11/05 07:34:47;;;;;;;2.58;1.70;;;;;;;3.01;56.57;100675.41;5033215;28;20381;-65
2022/11/05 07:37:15;;;;;;;3.58;1.73;;;;;;;3.11;56.60;100679.47;5054920;28;20453;-65
2022/11/05 07:39:40;;;;;;;3.40;1.80;;;;;;;3.06;56.61;100675.25;5052642;28;20039;-66
2022/11/05 07:42:06;;;;;;;2.67;1.95;;;;;;;3.05;56.67;100686.75;5052508;28;20095;-66
2022/11/05 07:44:32;;;;;;;3.30;2.03;;;;;;;3.00;56.71;100687.78;5054233;28;20154;-66
2022/11/05 07:46:57;;;;;;;4.53;2.20;;;;;;;2.99;56.71;100696.66;5034523;28;20034;-66
2022/11/05 07:49:22;;;;;;;3.65;2.13;;;;;;;2.97;56.51;100693.19;5038221;28;20068;-64
2022/11/05 07:51:48;;;;;;;3.33;2.20;;;;;;;2.97;56.97;100682.63;5036565;28;20116;-66
2022/11/05 07:54:13;;;;;;;5.05;1.90;;;;;;;3.00;56.55;100693.09;5053792;28;20067;-65
2022/11/05 07:56:39;;;;;;;3.22;2.10;;;;;;;2.98;56.78;100688.75;5052793;28;20051;-65
2022/11/05 07:59:04;;;;;;;7.03;2.10;;;;;;;2.94;57.24;100685.38;5052742;28;20075;-65
2022/11/05 08:01:30;;;;;;;2.58;1.70;;;;;;;3.00;57.17;100690.44;5051819;28;20045;-66
2022/11/05 08:03:55;;;;;;;3.40;1.90;;;;;;;3.04;56.61;100692.97;5047528;28;20401;-65
2022/11/05 08:06:21;;;;;;;6.30;2.22;;;;;;;3.09;57.04;100696.31;5052157;28;20044;-65
2022/11/05 08:08:46;;;;;;;3.72;2.40;;;;;;;3.10;56.41;100705.97;5039126;28;20025;-65
2022/11/05 08:11:12;;;;;;;5.75;2.33;;;;;;;2.90;56.76;100670.53;5038413;28;20041;-65
2022/11/05 08:13:37;;;;;;;4.60;2.08;;;;;;;3.03;56.77;100707.13;5044652;28;20033;-68
2022/11/05 08:16:04;;;;;;;6.57;2.80;;;;;;;2.79;56.67;100667.38;5048221;28;20036;-65
2022/11/05 08:18:31;;;;;;;4.90;2.58;;;;;;;2.93;57.24;100702.16;5035064;28;20052;-66
2022/11/05 08:20:58;;;;;;;3.45;2.45;;;;;;;2.89;57.20;100692.59;5044242;28;20029;-65
2022/11/05 08:23:28;;;;;;;7.03;3.47;;;;;;;2.75;57.04;100671.91;5016014;28;20029;-65
2022/11/05 08:25:55;;;;;;;8.35;4.22;;;;;;;2.93;57.59;100699.53;5032966;28;20029;-66
2022/11/05 08:28:21;;;;;;;10.20;3.85;;;;;;;2.89;57.28;100705.81;5037412;28;20037;-64
2022/11/05 08:30:49;;;;;;;6.05;3.08;;;;;;;2.88;57.37;100704.09;5054192;28;20040;-65
2022/11/05 08:33:14;;;;;;;7.32;3.72;;;;;;;2.89;57.22;100711.09;5040946;28;20356;-64
2022/11/05 08:35:40;;;;;;;8.93;4.57;;;;;;;2.89;57.31;100708.44;5033555;28;20021;-65
2022/11/05 08:38:09;;;;;;;10.90;4.00;;;;;;;2.85;56.93;100698.91;5045594;28;20040;-65
2022/11/05 08:40:35;;;;;;;8.55;4.18;;;;;;;2.92;57.72;100710.16;5047073;28;20467;-64
2022/11/05 08:43:03;;;;;;;6.63;4.00;;;;;;;2.91;57.09;100722.53;5039456;28;20081;-65
2022/11/05 08:45:29;;;;;;;8.05;3.50;;;;;;;2.94;57.23;100724.19;5045953;28;20875;-65
2022/11/05 08:47:59;;;;;;;6.05;3.30;;;;;;;3.01;57.05;100718.63;5033280;28;20037;-66
2022/11/05 08:50:24;;;;;;;6.35;3.33;;;;;;;3.02;57.01;100706.28;5032993;28;20032;-67
2022/11/05 08:52:50;;;;;;;5.53;3.05;;;;;;;3.12;57.09;100723.53;5043746;28;20041;-64
2022/11/05 08:55:17;;;;;;;5.03;2.58;;;;;;;3.01;56.45;100700.09;5032314;28;20049;-65
2022/11/05 08:57:45;;;;;;;3.10;2.45;;;;;;;3.22;56.17;100720.56;5043305;28;20032;-65
2022/11/05 09:00:11;;;;;;;3.50;2.47;;;;;;;3.29;56.31;100717.66;5051516;28;20060;-64
2022/11/05 09:02:37;;;;;;;3.53;2.47;;;;;;;3.39;55.77;100706.75;5032072;28;20363;-66
2022/11/05 09:05:03;;;;;;;6.35;3.40;;;;;;;3.35;55.89;100699.81;5032732;28;20083;-66
2022/11/05 09:07:28;;;;;;;7.78;3.10;;;;;;;3.30;55.98;100705.28;5037401;28;20109;-66
2022/11/05 09:09:54;;;;;;;4.13;3.00;;;;;;;3.19;56.05;100705.69;5045919;28;20033;-65
2022/11/05 09:12:19;;;;;;;4.38;3.13;;;;;;;3.17;56.26;100704.88;5054497;28;20037;-66
2022/11/05 09:14:45;;;;;;;5.35;3.03;;;;;;;2.96;56.22;100678.25;5050691;28;20059;-66
2022/11/05 09:17:17;;;;;;;4.43;2.92;;;;;;;3.21;56.21;100710.91;5052670;28;20108;-65
2022/11/05 09:19:43;;;;;;;3.97;2.92;;;;;;;3.26;55.71;100709.81;5050293;28;20447;-65
2022/11/05 09:22:11;;;;;;;3.65;3.13;;;;;;;3.20;56.03;100710.03;5049867;28;20048;-66
2022/11/05 09:24:41;;;;;;;7.20;3.30;;;;;;;3.11;56.22;100698.00;5052065;28;20363;-66
2022/11/05 09:27:12;;;;;;;5.13;3.47;;;;;;;3.19;56.00;100708.31;5045158;28;20444;-66
2022/11/05 09:29:38;;;;;;;4.50;3.45;;;;;;;3.19;56.63;100712.72;5032215;28;20449;-64
2022/11/05 09:32:04;;;;;;;3.85;3.10;;;;;;;3.19;56.14;100718.91;5040022;28;20043;-65
2022/11/05 09:34:30;;;;;;;7.80;3.20;;;;;;;2.91;56.16;100672.25;5045835;28;20038;-66
2022/11/05 09:36:56;;;;;;;7.70;3.90;;;;;;;3.18;56.69;100722.47;5044235;28;20025;-66
2022/11/05 09:39:21;;;;;;;9.40;5.82;;;;;;;3.24;56.91;100714.31;5031766;28;20037;-66
2022/11/05 09:41:48;;;;;;;11.18;7.43;;;;;;;3.31;56.54;100728.19;5031362;28;20037;-65
2022/11/05 09:44:21;;;;;;;12.23;8.20;;;;;;;3.39;56.40;100720.81;5045074;28;20468;-65
2022/11/05 09:46:50;;;;;;;11.23;6.15;;;;;;;3.42;55.95;100722.50;5049323;28;20040;-65
2022/11/05 09:49:30;;;;;;;7.50;5.32;;;;;;;3.48;56.29;100727.56;5050190;28;20040;-65
2022/11/05 09:51:57;;;;;;;10.73;6.57;;;;;;;3.32;56.47;100729.03;5043327;28;20363;-64
2022/11/05 09:54:27;;;;;;;14.63;7.03;;;;;;;3.33;56.82;100725.47;5051091;28;20048;-64
2022/11/05 09:56:54;;;;;;;19.27;9.38;;;;;;;3.32;56.01;100734.34;5040311;28;20456;-65
2022/11/05 09:59:35;;;;;;;11.73;6.65;;;;;;;3.33;56.50;100736.06;5035543;28;20041;-64
2022/11/05 10:02:10;;;;;;;14.40;7.20;;;;;;;3.27;57.01;100737.16;5035504;28;20060;-66
2022/11/05 10:04:36;;;;;;;;;;;;;;;3.47;56.37;100733.78;5047716;28;20064;-65
2022/11/05 10:07:05;;;;;;;10.10;6.10;;;;;;;3.24;56.53;100740.78;5052513;28;20331;-66
2022/11/05 10:09:36;;;;;;;8.35;5.55;;;;;;;3.18;56.81;100733.06;5035282;28;20167;-65
2022/11/05 10:12:10;;;;;;;8.93;5.55;;;;;;;3.26;56.49;100736.28;5035726;28;20151;-65
2022/11/05 10:14:40;;;;;;;9.65;6.28;;;;;;;3.29;56.25;100746.75;5035923;28;20187;-64
2022/11/05 10:17:21;;;;;;;11.45;6.53;;;;;;;3.39;56.70;100743.81;5035957;28;20344;-65
2022/11/05 10:19:54;;;;;;;10.00;6.22;;;;;;;3.43;56.49;100753.34;5053129;28;20040;-65
2022/11/05 10:22:20;;;;;;;11.70;6.45;;;;;;;3.37;56.63;100743.84;5062631;28;20033;-65
2022/11/05 10:24:48;;;;;;;11.88;6.88;;;;;;;3.42;56.81;100746.34;5055334;28;20363;-66
2022/11/05 10:27:22;;;;;;;11.52;7.25;;;;;;;3.45;56.29;100756.81;5055195;28;20032;-66
2022/11/05 10:29:49;;;;;;;10.15;7.25;;;;;;;3.41;56.16;100753.41;5041997;28;20048;-66
2022/11/05 10:32:31;;;;;;;10.98;6.78;;;;;;;3.37;56.69;100746.50;5049529;28;20060;-65
2022/11/05 10:34:59;;;;;;;9.52;6.43;;;;;;;3.21;56.47;100743.53;5052873;28;20468;-64
2022/11/05 10:37:27;;;;;;;7.65;6.32;;;;;;;3.11;56.81;100747.41;5053242;28;20351;-67
2022/11/05 10:39:52;;;;;;;8.15;6.40;;;;;;;3.02;56.56;100753.91;5051652;28;20033;-66
2022/11/05 10:42:30;;;;;;;7.40;6.40;;;;;;;3.10;57.10;100754.50;5035025;28;20076;-66
2022/11/05 10:45:19;;;;;;;8.23;6.32;;;;;;;3.12;56.82;100752.66;5044329;28;20041;-65
2022/11/05 10:47:58;;;;;;;12.75;5.85;;;;;;;2.98;56.38;100697.56;5036942;28;20192;-65
2022/11/05 10:50:27;;;;;;;10.38;5.63;;;;;;;3.32;56.30;100759.03;5047584;28;20379;-65
2022/11/05 10:53:20;;;;;;;11.00;5.97;;;;;;;3.45;56.09;100755.00;5053689;28;20025;-65
2022/11/05 10:55:48;;;;;;;5.65;4.40;;;;;;;3.31;55.83;100754.66;5054727;28;20033;-65
2022/11/05 10:58:14;;;;;;;5.75;4.45;;;;;;;3.26;56.22;100757.47;5042065;28;20444;-65
2022/11/05 11:00:41;;;;;;;5.50;4.10;;;;;;;3.28;56.14;100754.78;5034461;28;20060;-65
2022/11/05 11:03:26;;;;;;;5.95;4.53;;;;;;;3.41;55.98;100756.03;5035610;28;20985;-64
2022/11/05 11:05:58;;;;;;;9.07;4.20;;;;;;;3.47;56.02;100762.91;5038752;28;20064;-65
2022/11/05 11:08:24;;;;;;;7.45;4.57;;;;;;;3.39;55.72;100757.03;5045528;28;20048;-65
2022/11/05 11:10:53;;;;;;;7.50;5.07;;;;;;;3.46;55.96;100771.78;5035278;28;20041;-67
2022/11/05 11:13:20;;;;;;;6.95;4.78;;;;;;;3.43;55.84;100766.59;5053713;28;20033;-66
2022/11/05 11:15:49;;;;;;;6.43;5.10;;;;;;;3.29;55.66;100769.72;5037122;28;20041;-66
2022/11/05 11:18:38;;;;;;;8.65;5.13;;;;;;;3.21;56.14;100766.47;5034004;28;20036;-65
2022/11/05 11:21:10;;;;;;;10.10;5.10;;;;;;;3.05;56.60;100774.06;5043852;28;20378;-66
2022/11/05 11:23:38;;;;;;;9.73;4.65;;;;;;;2.90;56.57;100755.19;5049631;28;20523;-66
2022/11/05 11:26:04;;;;;;;9.40;5.15;;;;;;;2.87;56.39;100772.00;5052370;28;20040;-65
2022/11/05 11:28:32;;;;;;;5.65;4.35;;;;;;;2.87;56.82;100773.78;5050045;28;20029;-67
2022/11/05 11:31:16;;;;;;;5.22;4.18;;;;;;;2.92;56.24;100774.50;5052664;28;20051;-66
2022/11/05 11:33:48;;;;;;;10.15;4.00;;;;;;;2.89;56.63;100785.16;5049538;28;20351;-65
2022/11/05 11:36:17;;;;;;;5.80;3.88;;;;;;;2.96;56.37;100789.34;5051353;28;20434;-66
2022/11/05 11:38:43;;;;;;;7.40;3.80;;;;;;;2.97;56.09;100788.44;5053279;28;20402;-65
2022/11/05 11:41:28;;;;;;;5.85;4.50;;;;;;;3.04;56.44;100789.09;5051230;28;20033;-67
2022/11/05 11:44:00;;;;;;;5.88;4.28;;;;;;;2.98;56.95;100787.53;5052374;28;20491;-65
2022/11/05 11:46:31;;;;;;;6.18;4.43;;;;;;;3.07;56.97;100793.41;5044500;28;20059;-67
2022/11/05 11:48:57;;;;;;;6.60;5.05;;;;;;;3.03;56.28;100781.19;5053236;28;20025;-66
2022/11/05 11:51:39;;;;;;;7.95;5.18;;;;;;;3.10;56.39;100790.66;5061634;28;20035;-67
2022/11/05 11:54:16;;;;;;;8.85;4.72;;;;;;;3.02;56.97;100790.94;5046607;28;20394;-67
2022/11/05 11:56:44;;;;;;;6.78;4.72;;;;;;;2.90;56.54;100776.34;5050912;28;20029;-67
2022/11/05 11:59:25;;;;;;;7.82;4.88;;;;;;;2.79;57.04;100757.31;5053153;28;20382;-67
2022/11/05 12:02:29;;;;;;;10.43;4.78;;;;;;;2.96;57.09;100775.25;5046752;28;20463;-67
2022/11/05 12:05:09;;;;;;;9.27;5.40;;;;;;;3.00;57.18;100790.97;5017097;28;20064;-67
2022/11/05 12:07:41;;;;;;;7.43;4.82;;;;;;;2.97;56.83;100787.56;5051778;28;20312;-68
2022/11/05 12:10:22;;;;;;;9.75;5.18;;;;;;;3.00;57.28;100788.34;5047567;28;20021;-68
2022/11/05 12:13:17;;;;;;;8.93;5.53;;;;;;;3.04;56.99;100788.22;5050076;28;20029;-66
2022/11/05 12:15:47;;;;;;;7.88;6.07;;;;;;;2.89;57.70;100794.91;5035528;28;20045;-62
2022/11/05 12:18:25;;;;;;;8.57;6.07;;;;;;;2.84;57.95;100797.69;5049898;28;20056;-63
2022/11/05 12:21:17;;;;;;;13.48;6.30;;;;;;;2.92;57.19;100808.00;5049883;28;20108;-67
2022/11/05 12:24:13;;;;;;;8.50;5.60;;;;;;;2.89;57.25;100801.03;5051968;28;20478;-63
2022/11/05 12:27:00;;;;;;;7.85;5.72;;;;;;;2.80;57.18;100804.00;5049235;28;20047;-62
2022/11/05 12:29:54;;;;;;;10.02;6.03;;;;;;;2.68;58.14;100803.50;5047763;28;20455;-62
2022/11/05 12:32:39;;;;;;;12.20;6.80;;;;;;;2.65;58.50;100789.50;5045914;28;20041;-62